sensor_id;sensor_type;location;lat;lon;timestamp;P1;durP1;ratioP1;P2;durP2;ratioP2
55913;SDS011;58179;48.776;9.124;2023-05-10T00:01:15;13.02;;;6.22;;
55913;SDS011;58179;48.776;9.124;2023-05-10T00:03:40;8.90;;;4.93;;
55913;SDS011;58179;48.776;9.124;2023-05-10T00:06:06;11.05;;;4.38;;
55913;SDS011;58179;48.776;9.124;2023-05-10T00:08:32;7.65;;;3.78;;
55913;SDS011;58179;48.776;9.124;2023-05-10T00:10:59;6.45;;;3.40;;
55913;SDS011;58179;48.776;9.124;2023-05-10T00:13:25;6.90;;;3.57;;
55913;SDS011;58179;48.776;9.124;2023-05-10T00:15:51;7.22;;;3.10;;
55913;SDS011;58179;48.776;9.124;2023-05-10T00:18:18;6.70;;;2.80;;
55913;SDS011;58179;48.776;9.124;2023-05-10T00:20:44;6.72;;;2.90;;
55913;SDS011;58179;48.776;9.124;2023-05-10T00:23:11;4.87;;;2.53;;
55913;SDS011;58179;48.776;9.124;2023-05-10T00:25:37;9.15;;;2.80;;
55913;SDS011;58179;48.776;9.124;2023-05-10T00:28:04;3.10;;;2.30;;
55913;SDS011;58179;48.776;9.124;2023-05-10T00:30:30;5.78;;;2.30;;
55913;SDS011;58179;48.776;9.124;2023-05-10T00:32:56;6.20;;;2.33;;
55913;SDS011;58179;48.776;9.124;2023-05-10T00:35:22;7.97;;;2.40;;
55913;SDS011;58179;48.776;9.124;2023-05-10T00:37:48;3.75;;;2.10;;
55913;SDS011;58179;48.776;9.124;2023-05-10T00:40:14;6.88;;;2.38;;
55913;SDS011;58179;48.776;9.124;2023-05-10T00:42:40;2.92;;;1.88;;
55913;SDS011;58179;48.776;9.124;2023-05-10T00:45:07;5.57;;;1.85;;
55913;SDS011;58179;48.776;9.124;2023-05-10T00:47:34;8.70;;;2.03;;
55913;SDS011;58179;48.776;9.124;2023-05-10T00:50:00;4.35;;;1.98;;
55913;SDS011;58179;48.776;9.124;2023-05-10T00:52:26;3.97;;;2.00;;
55913;SDS011;58179;48.776;9.124;2023-05-10T00:54:53;4.83;;;2.00;;
55913;SDS011;58179;48.776;9.124;2023-05-10T00:57:20;2.00;;;1.67;;
55913;SDS011;58179;48.776;9.124;2023-05-10T00:59:46;5.47;;;2.00;;
55913;SDS011;58179;48.776;9.124;2023-05-10T01:02:14;3.92;;;1.92;;
55913;SDS011;58179;48.776;9.124;2023-05-10T01:04:40;6.80;;;2.00;;
55913;SDS011;58179;48.776;9.124;2023-05-10T01:07:07;5.82;;;2.10;;
55913;SDS011;58179;48.776;9.124;2023-05-10T01:09:33;4.10;;;2.10;;
55913;SDS011;58179;48.776;9.124;2023-05-10T01:11:59;8.43;;;2.00;;
55913;SDS011;58179;48.776;9.124;2023-05-10T01:14:26;3.53;;;1.88;;
55913;SDS011;58179;48.776;9.124;2023-05-10T01:16:53;3.25;;;1.80;;
55913;SDS011;58179;48.776;9.124;2023-05-10T01:19:22;3.25;;;1.90;;
55913;SDS011;58179;48.776;9.124;2023-05-10T01:21:53;3.75;;;1.90;;
55913;SDS011;58179;48.776;9.124;2023-05-10T01:24:36;3.53;;;2.10;;
55913;SDS011;58179;48.776;9.124;2023-05-10T01:27:20;5.40;;;2.47;;
55913;SDS011;58179;48.776;9.124;2023-05-10T01:33:44;4.47;;;2.20;;
55913;SDS011;58179;48.776;9.124;2023-05-10T01:36:19;5.50;;;2.53;;
55913;SDS011;58179;48.776;9.124;2023-05-10T01:38:53;5.53;;;2.60;;
55913;SDS011;58179;48.776;9.124;2023-05-10T01:41:28;4.28;;;2.30;;
55913;SDS011;58179;48.776;9.124;2023-05-10T01:44:09;5.72;;;2.47;;
55913;SDS011;58179;48.776;9.124;2023-05-10T01:46:42;5.90;;;2.70;;
55913;SDS011;58179;48.776;9.124;2023-05-10T01:49:17;6.90;;;2.40;;
55913;SDS011;58179;48.776;9.124;2023-05-10T01:51:49;7.38;;;2.40;;
55913;SDS011;58179;48.776;9.124;2023-05-10T01:54:20;8.07;;;2.85;;
55913;SDS011;58179;48.776;9.124;2023-05-10T01:56:50;11.85;;;3.08;;
55913;SDS011;58179;48.776;9.124;2023-05-10T01:59:23;7.97;;;2.75;;
55913;SDS011;58179;48.776;9.124;2023-05-10T02:02:04;5.22;;;2.53;;
55913;SDS011;58179;48.776;9.124;2023-05-10T02:04:32;10.38;;;4.10;;
55913;SDS011;58179;48.776;9.124;2023-05-10T02:07:00;5.68;;;2.92;;
55913;SDS011;58179;48.776;9.124;2023-05-10T02:09:27;5.93;;;3.00;;
55913;SDS011;58179;48.776;9.124;2023-05-10T02:11:55;5.70;;;3.17;;
55913;SDS011;58179;48.776;9.124;2023-05-10T02:14:24;8.45;;;3.00;;
55913;SDS011;58179;48.776;9.124;2023-05-10T02:16:52;9.15;;;2.78;;
55913;SDS011;58179;48.776;9.124;2023-05-10T02:19:20;8.20;;;2.97;;
55913;SDS011;58179;48.776;9.124;2023-05-10T02:21:49;8.60;;;3.10;;
55913;SDS011;58179;48.776;9.124;2023-05-10T02:24:16;14.30;;;3.60;;
55913;SDS011;58179;48.776;9.124;2023-05-10T02:26:44;8.43;;;3.20;;
55913;SDS011;58179;48.776;9.124;2023-05-10T02:29:12;13.57;;;3.25;;
55913;SDS011;58179;48.776;9.124;2023-05-10T02:31:41;9.50;;;3.20;;
55913;SDS011;58179;48.776;9.124;2023-05-10T02:34:08;10.40;;;3.38;;
55913;SDS011;58179;48.776;9.124;2023-05-10T02:36:36;10.60;;;3.22;;
55913;SDS011;58179;48.776;9.124;2023-05-10T02:39:05;5.63;;;2.70;;
55913;SDS011;58179;48.776;9.124;2023-05-10T02:41:35;11.65;;;3.40;;
55913;SDS011;58179;48.776;9.124;2023-05-10T02:44:02;8.77;;;3.33;;
55913;SDS011;58179;48.776;9.124;2023-05-10T02:46:31;6.95;;;2.90;;
55913;SDS011;58179;48.776;9.124;2023-05-10T02:48:57;12.53;;;3.80;;
55913;SDS011;58179;48.776;9.124;2023-05-10T02:51:24;12.20;;;3.58;;
55913;SDS011;58179;48.776;9.124;2023-05-10T02:53:53;15.07;;;3.67;;
55913;SDS011;58179;48.776;9.124;2023-05-10T02:56:23;15.43;;;4.33;;
55913;SDS011;58179;48.776;9.124;2023-05-10T02:58:54;13.07;;;3.85;;
55913;SDS011;58179;48.776;9.124;2023-05-10T03:01:20;9.95;;;3.50;;
55913;SDS011;58179;48.776;9.124;2023-05-10T03:03:46;15.50;;;4.50;;
55913;SDS011;58179;48.776;9.124;2023-05-10T03:06:12;12.30;;;4.10;;
55913;SDS011;58179;48.776;9.124;2023-05-10T03:08:38;15.00;;;4.10;;
55913;SDS011;58179;48.776;9.124;2023-05-10T03:11:26;10.75;;;4.07;;
55913;SDS011;58179;48.776;9.124;2023-05-10T03:14:09;19.63;;;5.53;;
55913;SDS011;58179;48.776;9.124;2023-05-10T03:17:00;12.60;;;4.80;;
55913;SDS011;58179;48.776;9.124;2023-05-10T03:19:32;14.38;;;5.43;;
55913;SDS011;58179;48.776;9.124;2023-05-10T03:22:08;13.00;;;4.88;;
55913;SDS011;58179;48.776;9.124;2023-05-10T03:24:38;14.23;;;5.25;;
55913;SDS011;58179;48.776;9.124;2023-05-10T03:27:07;20.00;;;5.40;;
55913;SDS011;58179;48.776;9.124;2023-05-10T03:29:34;15.30;;;5.70;;
55913;SDS011;58179;48.776;9.124;2023-05-10T03:32:01;14.65;;;5.40;;
55913;SDS011;58179;48.776;9.124;2023-05-10T03:34:27;14.25;;;5.10;;
55913;SDS011;58179;48.776;9.124;2023-05-10T03:36:56;18.05;;;5.05;;
55913;SDS011;58179;48.776;9.124;2023-05-10T03:39:22;19.67;;;6.00;;
55913;SDS011;58179;48.776;9.124;2023-05-10T03:41:49;14.68;;;6.38;;
55913;SDS011;58179;48.776;9.124;2023-05-10T03:44:17;15.95;;;6.75;;
55913;SDS011;58179;48.776;9.124;2023-05-10T03:46:43;14.40;;;5.57;;
55913;SDS011;58179;48.776;9.124;2023-05-10T03:49:09;15.45;;;6.10;;
55913;SDS011;58179;48.776;9.124;2023-05-10T03:51:35;17.42;;;6.88;;
55913;SDS011;58179;48.776;9.124;2023-05-10T03:54:00;15.85;;;7.45;;
55913;SDS011;58179;48.776;9.124;2023-05-10T03:56:26;20.35;;;7.75;;
55913;SDS011;58179;48.776;9.124;2023-05-10T03:58:52;22.85;;;7.80;;
55913;SDS011;58179;48.776;9.124;2023-05-10T04:01:19;22.98;;;7.30;;
55913;SDS011;58179;48.776;9.124;2023-05-10T04:03:45;17.40;;;7.20;;
55913;SDS011;58179;48.776;9.124;2023-05-10T04:06:11;17.57;;;6.97;;
55913;SDS011;58179;48.776;9.124;2023-05-10T04:08:37;14.38;;;7.00;;
55913;SDS011;58179;48.776;9.124;2023-05-10T04:11:06;12.40;;;6.53;;
55913;SDS011;58179;48.776;9.124;2023-05-10T04:13:32;12.32;;;5.63;;
55913;SDS011;58179;48.776;9.124;2023-05-10T04:15:58;15.88;;;7.32;;
55913;SDS011;58179;48.776;9.124;2023-05-10T04:18:26;17.83;;;7.47;;
55913;SDS011;58179;48.776;9.124;2023-05-10T04:20:52;17.57;;;5.73;;
55913;SDS011;58179;48.776;9.124;2023-05-10T04:23:17;15.38;;;6.43;;
55913;SDS011;58179;48.776;9.124;2023-05-10T04:25:43;17.83;;;7.40;;
55913;SDS011;58179;48.776;9.124;2023-05-10T04:28:09;20.27;;;7.20;;
55913;SDS011;58179;48.776;9.124;2023-05-10T04:30:35;19.75;;;7.88;;
55913;SDS011;58179;48.776;9.124;2023-05-10T04:33:01;25.00;;;7.18;;
55913;SDS011;58179;48.776;9.124;2023-05-10T04:35:28;24.60;;;7.88;;
55913;SDS011;58179;48.776;9.124;2023-05-10T04:37:54;17.20;;;7.55;;
55913;SDS011;58179;48.776;9.124;2023-05-10T04:40:20;19.13;;;8.60;;
55913;SDS011;58179;48.776;9.124;2023-05-10T04:42:46;22.55;;;8.00;;
55913;SDS011;58179;48.776;9.124;2023-05-10T04:45:12;18.85;;;7.45;;
55913;SDS011;58179;48.776;9.124;2023-05-10T04:47:41;19.00;;;7.10;;
55913;SDS011;58179;48.776;9.124;2023-05-10T04:50:07;13.70;;;6.27;;
55913;SDS011;58179;48.776;9.124;2023-05-10T04:52:35;18.75;;;6.47;;
55913;SDS011;58179;48.776;9.124;2023-05-10T04:55:01;20.00;;;7.80;;
55913;SDS011;58179;48.776;9.124;2023-05-10T04:57:27;20.70;;;7.67;;
55913;SDS011;58179;48.776;9.124;2023-05-10T04:59:53;20.00;;;6.95;;
55913;SDS011;58179;48.776;9.124;2023-05-10T05:02:19;22.25;;;7.70;;
55913;SDS011;58179;48.776;9.124;2023-05-10T05:04:45;19.05;;;7.22;;
55913;SDS011;58179;48.776;9.124;2023-05-10T05:07:11;18.23;;;7.18;;
55913;SDS011;58179;48.776;9.124;2023-05-10T05:09:38;18.75;;;6.25;;
55913;SDS011;58179;48.776;9.124;2023-05-10T05:12:04;16.70;;;6.30;;
55913;SDS011;58179;48.776;9.124;2023-05-10T05:14:30;16.00;;;6.40;;
55913;SDS011;58179;48.776;9.124;2023-05-10T05:16:56;16.27;;;5.68;;
55913;SDS011;58179;48.776;9.124;2023-05-10T05:19:22;18.77;;;6.30;;
55913;SDS011;58179;48.776;9.124;2023-05-10T05:21:48;19.42;;;6.70;;
55913;SDS011;58179;48.776;9.124;2023-05-10T05:24:14;17.35;;;7.30;;
55913;SDS011;58179;48.776;9.124;2023-05-10T05:26:41;12.70;;;5.70;;
55913;SDS011;58179;48.776;9.124;2023-05-10T05:29:07;11.43;;;5.60;;
55913;SDS011;58179;48.776;9.124;2023-05-10T05:31:33;19.02;;;7.57;;
55913;SDS011;58179;48.776;9.124;2023-05-10T05:33:59;15.00;;;6.50;;
55913;SDS011;58179;48.776;9.124;2023-05-10T05:36:25;17.55;;;6.72;;
55913;SDS011;58179;48.776;9.124;2023-05-10T05:38:51;13.50;;;5.97;;
55913;SDS011;58179;48.776;9.124;2023-05-10T05:41:17;19.23;;;6.78;;
55913;SDS011;58179;48.776;9.124;2023-05-10T05:43:44;15.10;;;6.28;;
55913;SDS011;58179;48.776;9.124;2023-05-10T05:46:10;17.70;;;7.30;;
55913;SDS011;58179;48.776;9.124;2023-05-10T05:48:36;16.57;;;6.77;;
55913;SDS011;58179;48.776;9.124;2023-05-10T05:51:01;15.83;;;7.20;;
55913;SDS011;58179;48.776;9.124;2023-05-10T05:53:28;13.23;;;6.30;;
55913;SDS011;58179;48.776;9.124;2023-05-10T05:55:54;16.48;;;6.53;;
55913;SDS011;58179;48.776;9.124;2023-05-10T05:58:22;14.55;;;6.13;;
55913;SDS011;58179;48.776;9.124;2023-05-10T06:00:49;13.15;;;6.18;;
55913;SDS011;58179;48.776;9.124;2023-05-10T06:03:16;18.83;;;6.90;;
55913;SDS011;58179;48.776;9.124;2023-05-10T06:05:43;11.82;;;5.90;;
55913;SDS011;58179;48.776;9.124;2023-05-10T06:08:09;18.83;;;6.80;;
55913;SDS011;58179;48.776;9.124;2023-05-10T06:10:35;14.02;;;5.90;;
55913;SDS011;58179;48.776;9.124;2023-05-10T06:13:01;17.17;;;7.05;;
55913;SDS011;58179;48.776;9.124;2023-05-10T06:15:27;18.05;;;7.70;;
55913;SDS011;58179;48.776;9.124;2023-05-10T06:17:54;17.13;;;7.53;;
55913;SDS011;58179;48.776;9.124;2023-05-10T06:20:20;12.27;;;6.35;;
55913;SDS011;58179;48.776;9.124;2023-05-10T06:22:46;18.27;;;7.72;;
55913;SDS011;58179;48.776;9.124;2023-05-10T06:25:12;17.88;;;7.28;;
55913;SDS011;58179;48.776;9.124;2023-05-10T06:27:39;18.20;;;7.78;;
55913;SDS011;58179;48.776;9.124;2023-05-10T06:30:05;16.80;;;6.78;;
55913;SDS011;58179;48.776;9.124;2023-05-10T06:32:33;16.27;;;7.45;;
55913;SDS011;58179;48.776;9.124;2023-05-10T06:35:01;20.05;;;8.30;;
55913;SDS011;58179;48.776;9.124;2023-05-10T06:37:26;25.73;;;8.73;;
55913;SDS011;58179;48.776;9.124;2023-05-10T06:39:52;16.97;;;7.57;;
55913;SDS011;58179;48.776;9.124;2023-05-10T06:42:18;19.37;;;8.03;;
55913;SDS011;58179;48.776;9.124;2023-05-10T06:44:44;13.77;;;7.20;;
55913;SDS011;58179;48.776;9.124;2023-05-10T06:47:10;16.07;;;7.60;;
55913;SDS011;58179;48.776;9.124;2023-05-10T06:49:36;17.38;;;7.82;;
55913;SDS011;58179;48.776;9.124;2023-05-10T06:52:03;16.25;;;7.65;;
55913;SDS011;58179;48.776;9.124;2023-05-10T06:54:30;21.00;;;8.57;;
55913;SDS011;58179;48.776;9.124;2023-05-10T06:56:56;16.25;;;7.50;;
55913;SDS011;58179;48.776;9.124;2023-05-10T06:59:22;18.35;;;8.32;;
55913;SDS011;58179;48.776;9.124;2023-05-10T07:01:49;23.92;;;8.98;;
55913;SDS011;58179;48.776;9.124;2023-05-10T07:04:14;17.13;;;7.88;;
55913;SDS011;58179;48.776;9.124;2023-05-10T07:06:40;26.58;;;9.00;;
55913;SDS011;58179;48.776;9.124;2023-05-10T07:09:07;18.88;;;8.32;;
55913;SDS011;58179;48.776;9.124;2023-05-10T07:11:33;15.52;;;7.35;;
55913;SDS011;58179;48.776;9.124;2023-05-10T07:13:59;20.03;;;8.77;;
55913;SDS011;58179;48.776;9.124;2023-05-10T07:16:25;22.83;;;8.40;;
55913;SDS011;58179;48.776;9.124;2023-05-10T07:18:51;21.73;;;8.63;;
55913;SDS011;58179;48.776;9.124;2023-05-10T07:21:18;15.45;;;6.78;;
55913;SDS011;58179;48.776;9.124;2023-05-10T07:23:44;19.27;;;7.90;;
55913;SDS011;58179;48.776;9.124;2023-05-10T07:26:11;14.48;;;7.18;;
55913;SDS011;58179;48.776;9.124;2023-05-10T07:28:37;19.20;;;7.28;;
55913;SDS011;58179;48.776;9.124;2023-05-10T07:31:04;14.25;;;6.38;;
55913;SDS011;58179;48.776;9.124;2023-05-10T07:33:30;13.48;;;5.65;;
55913;SDS011;58179;48.776;9.124;2023-05-10T07:35:56;19.80;;;7.37;;
55913;SDS011;58179;48.776;9.124;2023-05-10T07:38:22;10.07;;;5.45;;
55913;SDS011;58179;48.776;9.124;2023-05-10T07:40:48;12.98;;;6.32;;
55913;SDS011;58179;48.776;9.124;2023-05-10T07:43:15;12.52;;;5.30;;
55913;SDS011;58179;48.776;9.124;2023-05-10T07:45:41;11.63;;;6.07;;
55913;SDS011;58179;48.776;9.124;2023-05-10T07:48:07;8.07;;;4.60;;
55913;SDS011;58179;48.776;9.124;2023-05-10T07:50:33;10.43;;;4.47;;
55913;SDS011;58179;48.776;9.124;2023-05-10T07:52:59;10.98;;;4.22;;
55913;SDS011;58179;48.776;9.124;2023-05-10T07:55:25;11.00;;;4.07;;
55913;SDS011;58179;48.776;9.124;2023-05-10T07:57:51;8.45;;;3.80;;
55913;SDS011;58179;48.776;9.124;2023-05-10T08:00:19;8.68;;;4.05;;
55913;SDS011;58179;48.776;9.124;2023-05-10T08:02:45;9.60;;;4.40;;
55913;SDS011;58179;48.776;9.124;2023-05-10T08:05:12;6.65;;;3.38;;
55913;SDS011;58179;48.776;9.124;2023-05-10T08:07:38;7.85;;;3.90;;
55913;SDS011;58179;48.776;9.124;2023-05-10T08:10:05;6.97;;;3.70;;
55913;SDS011;58179;48.776;9.124;2023-05-10T08:12:34;6.43;;;3.65;;
55913;SDS011;58179;48.776;9.124;2023-05-10T08:15:00;7.68;;;3.30;;
55913;SDS011;58179;48.776;9.124;2023-05-10T08:17:28;7.25;;;3.33;;
55913;SDS011;58179;48.776;9.124;2023-05-10T08:19:54;8.50;;;3.40;;
55913;SDS011;58179;48.776;9.124;2023-05-10T08:22:20;8.52;;;3.70;;
55913;SDS011;58179;48.776;9.124;2023-05-10T08:24:46;6.30;;;3.28;;
55913;SDS011;58179;48.776;9.124;2023-05-10T08:27:12;7.07;;;3.70;;
55913;SDS011;58179;48.776;9.124;2023-05-10T08:29:38;7.47;;;3.30;;
55913;SDS011;58179;48.776;9.124;2023-05-10T08:32:04;4.67;;;2.97;;
55913;SDS011;58179;48.776;9.124;2023-05-10T08:34:31;8.77;;;3.55;;
55913;SDS011;58179;48.776;9.124;2023-05-10T08:36:58;5.55;;;3.28;;
55913;SDS011;58179;48.776;9.124;2023-05-10T08:39:24;7.68;;;2.90;;
55913;SDS011;58179;48.776;9.124;2023-05-10T08:41:50;4.80;;;2.88;;
55913;SDS011;58179;48.776;9.124;2023-05-10T08:44:19;6.90;;;2.83;;
55913;SDS011;58179;48.776;9.124;2023-05-10T08:46:45;6.32;;;2.55;;
55913;SDS011;58179;48.776;9.124;2023-05-10T08:49:16;7.97;;;2.70;;
55913;SDS011;58179;48.776;9.124;2023-05-10T08:51:47;4.23;;;2.50;;
55913;SDS011;58179;48.776;9.124;2023-05-10T08:54:17;5.63;;;2.42;;
55913;SDS011;58179;48.776;9.124;2023-05-10T08:56:43;4.10;;;2.30;;
55913;SDS011;58179;48.776;9.124;2023-05-10T08:59:09;5.00;;;2.33;;
55913;SDS011;58179;48.776;9.124;2023-05-10T09:01:37;2.72;;;2.00;;
55913;SDS011;58179;48.776;9.124;2023-05-10T09:04:03;7.60;;;2.30;;
55913;SDS011;58179;48.776;9.124;2023-05-10T09:06:31;4.63;;;1.88;;
55913;SDS011;58179;48.776;9.124;2023-05-10T09:08:59;4.95;;;1.90;;
55913;SDS011;58179;48.776;9.124;2023-05-10T09:11:26;4.13;;;1.80;;
55913;SDS011;58179;48.776;9.124;2023-05-10T09:13:54;3.65;;;1.55;;
55913;SDS011;58179;48.776;9.124;2023-05-10T09:16:20;2.33;;;1.42;;
55913;SDS011;58179;48.776;9.124;2023-05-10T09:18:46;3.00;;;1.70;;
55913;SDS011;58179;48.776;9.124;2023-05-10T09:21:12;2.20;;;1.70;;
55913;SDS011;58179;48.776;9.124;2023-05-10T09:23:42;3.20;;;1.65;;
55913;SDS011;58179;48.776;9.124;2023-05-10T09:26:09;2.60;;;1.60;;
55913;SDS011;58179;48.776;9.124;2023-05-10T09:28:49;4.88;;;1.80;;
55913;SDS011;58179;48.776;9.124;2023-05-10T09:31:16;3.20;;;1.38;;
55913;SDS011;58179;48.776;9.124;2023-05-10T09:33:43;4.40;;;1.60;;
55913;SDS011;58179;48.776;9.124;2023-05-10T09:36:11;2.20;;;1.30;;
55913;SDS011;58179;48.776;9.124;2023-05-10T09:38:45;4.47;;;1.40;;
55913;SDS011;58179;48.776;9.124;2023-05-10T09:41:17;3.83;;;1.30;;
55913;SDS011;58179;48.776;9.124;2023-05-10T09:43:45;1.42;;;1.20;;
55913;SDS011;58179;48.776;9.124;2023-05-10T09:46:11;5.65;;;1.35;;
55913;SDS011;58179;48.776;9.124;2023-05-10T09:48:39;1.20;;;1.10;;
55913;SDS011;58179;48.776;9.124;2023-05-10T09:51:09;5.07;;;1.00;;
55913;SDS011;58179;48.776;9.124;2023-05-10T09:53:35;1.33;;;1.05;;
55913;SDS011;58179;48.776;9.124;2023-05-10T09:56:02;1.80;;;1.25;;
55913;SDS011;58179;48.776;9.124;2023-05-10T09:58:30;3.90;;;1.20;;
55913;SDS011;58179;48.776;9.124;2023-05-10T10:00:56;1.10;;;1.00;;
55913;SDS011;58179;48.776;9.124;2023-05-10T10:03:22;2.45;;;1.08;;
55913;SDS011;58179;48.776;9.124;2023-05-10T10:05:49;1.65;;;1.00;;
55913;SDS011;58179;48.776;9.124;2023-05-10T10:08:17;1.27;;;1.10;;
55913;SDS011;58179;48.776;9.124;2023-05-10T10:10:43;1.70;;;1.03;;
55913;SDS011;58179;48.776;9.124;2023-05-10T10:13:13;2.58;;;1.08;;
55913;SDS011;58179;48.776;9.124;2023-05-10T10:15:41;1.48;;;1.00;;
55913;SDS011;58179;48.776;9.124;2023-05-10T10:18:10;1.80;;;0.90;;
55913;SDS011;58179;48.776;9.124;2023-05-10T10:20:39;1.67;;;0.82;;
55913;SDS011;58179;48.776;9.124;2023-05-10T10:23:06;5.90;;;1.40;;
55913;SDS011;58179;48.776;9.124;2023-05-10T10:25:33;2.00;;;1.00;;
55913;SDS011;58179;48.776;9.124;2023-05-10T10:28:05;0.90;;;0.82;;
55913;SDS011;58179;48.776;9.124;2023-05-10T10:30:50;1.03;;;0.93;;
55913;SDS011;58179;48.776;9.124;2023-05-10T10:33:38;1.17;;;1.00;;
55913;SDS011;58179;48.776;9.124;2023-05-10T10:36:16;3.80;;;0.80;;
55913;SDS011;58179;48.776;9.124;2023-05-10T10:38:56;3.85;;;0.90;;
55913;SDS011;58179;48.776;9.124;2023-05-10T10:41:29;1.40;;;1.10;;
55913;SDS011;58179;48.776;9.124;2023-05-10T10:47:03;3.25;;;1.02;;
55913;SDS011;58179;48.776;9.124;2023-05-10T10:49:54;3.25;;;0.90;;
55913;SDS011;58179;48.776;9.124;2023-05-10T10:52:30;1.10;;;0.90;;
55913;SDS011;58179;48.776;9.124;2023-05-10T10:54:59;2.35;;;1.20;;
55913;SDS011;58179;48.776;9.124;2023-05-10T10:57:31;3.70;;;0.88;;
55913;SDS011;58179;48.776;9.124;2023-05-10T11:02:52;2.85;;;0.90;;
55913;SDS011;58179;48.776;9.124;2023-05-10T11:05:25;2.47;;;1.00;;
55913;SDS011;58179;48.776;9.124;2023-05-10T11:08:10;3.67;;;1.00;;
55913;SDS011;58179;48.776;9.124;2023-05-10T11:10:48;3.33;;;1.10;;
55913;SDS011;58179;48.776;9.124;2023-05-10T11:13:29;1.52;;;0.93;;
55913;SDS011;58179;48.776;9.124;2023-05-10T11:15:57;1.60;;;0.80;;
55913;SDS011;58179;48.776;9.124;2023-05-10T11:18:26;1.50;;;0.70;;
55913;SDS011;58179;48.776;9.124;2023-05-10T11:20:56;3.20;;;0.80;;
55913;SDS011;58179;48.776;9.124;2023-05-10T11:23:28;2.85;;;0.77;;
55913;SDS011;58179;48.776;9.124;2023-05-10T11:25:56;2.17;;;0.73;;
55913;SDS011;58179;48.776;9.124;2023-05-10T11:28:22;0.93;;;0.77;;
55913;SDS011;58179;48.776;9.124;2023-05-10T11:30:48;0.80;;;0.70;;
55913;SDS011;58179;48.776;9.124;2023-05-10T11:33:15;2.20;;;0.90;;
55913;SDS011;58179;48.776;9.124;2023-05-10T11:35:43;0.93;;;0.75;;
55913;SDS011;58179;48.776;9.124;2023-05-10T11:38:10;4.53;;;0.87;;
55913;SDS011;58179;48.776;9.124;2023-05-10T11:40:37;1.70;;;1.00;;
55913;SDS011;58179;48.776;9.124;2023-05-10T11:43:04;1.55;;;0.93;;
55913;SDS011;58179;48.776;9.124;2023-05-10T11:45:31;1.70;;;0.80;;
55913;SDS011;58179;48.776;9.124;2023-05-10T11:47:58;5.30;;;1.00;;
55913;SDS011;58179;48.776;9.124;2023-05-10T11:50:24;1.42;;;0.90;;
55913;SDS011;58179;48.776;9.124;2023-05-10T11:52:55;2.15;;;1.25;;
55913;SDS011;58179;48.776;9.124;2023-05-10T11:55:22;2.30;;;1.05;;
55913;SDS011;58179;48.776;9.124;2023-05-10T11:57:51;3.10;;;1.00;;
55913;SDS011;58179;48.776;9.124;2023-05-10T12:00:18;2.83;;;1.08;;
55913;SDS011;58179;48.776;9.124;2023-05-10T12:02:46;2.25;;;1.08;;
55913;SDS011;58179;48.776;9.124;2023-05-10T12:05:12;3.93;;;1.20;;
55913;SDS011;58179;48.776;9.124;2023-05-10T12:07:38;1.73;;;1.02;;
55913;SDS011;58179;48.776;9.124;2023-05-10T12:10:09;5.70;;;1.27;;
55913;SDS011;58179;48.776;9.124;2023-05-10T12:12:39;5.47;;;1.17;;
55913;SDS011;58179;48.776;9.124;2023-05-10T12:15:10;3.05;;;1.10;;
55913;SDS011;58179;48.776;9.124;2023-05-10T12:17:37;4.27;;;1.10;;
55913;SDS011;58179;48.776;9.124;2023-05-10T12:35:46;3.53;;;0.98;;
55913;SDS011;58179;48.776;9.124;2023-05-10T12:38:27;3.10;;;1.10;;
55913;SDS011;58179;48.776;9.124;2023-05-10T12:41:05;2.25;;;1.17;;
55913;SDS011;58179;48.776;9.124;2023-05-10T12:43:32;3.10;;;1.10;;
55913;SDS011;58179;48.776;9.124;2023-05-10T12:46:04;3.38;;;1.00;;
55913;SDS011;58179;48.776;9.124;2023-05-10T12:48:33;2.05;;;1.13;;
55913;SDS011;58179;48.776;9.124;2023-05-10T12:51:01;2.90;;;1.20;;
55913;SDS011;58179;48.776;9.124;2023-05-10T12:53:30;3.40;;;1.20;;
55913;SDS011;58179;48.776;9.124;2023-05-10T12:55:56;2.17;;;1.17;;
55913;SDS011;58179;48.776;9.124;2023-05-10T12:58:23;2.70;;;1.13;;
55913;SDS011;58179;48.776;9.124;2023-05-10T13:00:49;3.20;;;1.20;;
55913;SDS011;58179;48.776;9.124;2023-05-10T13:03:17;3.63;;;1.13;;
55913;SDS011;58179;48.776;9.124;2023-05-10T13:05:44;1.88;;;1.00;;
55913;SDS011;58179;48.776;9.124;2023-05-10T13:08:11;2.97;;;1.25;;
55913;SDS011;58179;48.776;9.124;2023-05-10T13:10:37;2.42;;;1.00;;
55913;SDS011;58179;48.776;9.124;2023-05-10T13:13:05;2.42;;;1.08;;
55913;SDS011;58179;48.776;9.124;2023-05-10T13:15:32;2.10;;;1.13;;
55913;SDS011;58179;48.776;9.124;2023-05-10T13:18:00;2.60;;;1.15;;
55913;SDS011;58179;48.776;9.124;2023-05-10T13:20:27;5.78;;;1.30;;
55913;SDS011;58179;48.776;9.124;2023-05-10T13:22:53;4.93;;;1.08;;
55913;SDS011;58179;48.776;9.124;2023-05-10T13:25:21;1.53;;;1.00;;
55913;SDS011;58179;48.776;9.124;2023-05-10T13:27:47;1.75;;;1.05;;
55913;SDS011;58179;48.776;9.124;2023-05-10T13:30:14;2.78;;;1.10;;
55913;SDS011;58179;48.776;9.124;2023-05-10T13:32:56;1.58;;;1.02;;
55913;SDS011;58179;48.776;9.124;2023-05-10T13:35:30;2.78;;;1.10;;
55913;SDS011;58179;48.776;9.124;2023-05-10T13:40:35;2.60;;;1.05;;
55913;SDS011;58179;48.776;9.124;2023-05-10T13:43:03;3.08;;;1.00;;
55913;SDS011;58179;48.776;9.124;2023-05-10T13:45:30;1.45;;;1.00;;
55913;SDS011;58179;48.776;9.124;2023-05-10T13:47:57;3.58;;;0.93;;
55913;SDS011;58179;48.776;9.124;2023-05-10T13:50:23;3.10;;;0.90;;
55913;SDS011;58179;48.776;9.124;2023-05-10T13:52:55;1.98;;;0.93;;
55913;SDS011;58179;48.776;9.124;2023-05-10T14:13:33;1.40;;;0.80;;
55913;SDS011;58179;48.776;9.124;2023-05-10T14:16:09;1.17;;;1.00;;
55913;SDS011;58179;48.776;9.124;2023-05-10T14:18:46;2.17;;;0.80;;
55913;SDS011;58179;48.776;9.124;2023-05-10T14:21:24;1.80;;;1.08;;
55913;SDS011;58179;48.776;9.124;2023-05-10T14:23:53;1.80;;;0.98;;
55913;SDS011;58179;48.776;9.124;2023-05-10T14:29:11;3.85;;;1.00;;
55913;SDS011;58179;48.776;9.124;2023-05-10T14:31:41;3.88;;;1.27;;
55913;SDS011;58179;48.776;9.124;2023-05-10T14:34:28;3.15;;;1.00;;
55913;SDS011;58179;48.776;9.124;2023-05-10T14:37:09;1.20;;;0.80;;
55913;SDS011;58179;48.776;9.124;2023-05-10T14:40:18;3.72;;;0.90;;
55913;SDS011;58179;48.776;9.124;2023-05-10T14:42:42;1.70;;;0.80;;
55913;SDS011;58179;48.776;9.124;2023-05-10T14:45:09;2.08;;;1.05;;
55913;SDS011;58179;48.776;9.124;2023-05-10T14:47:38;1.37;;;0.80;;
55913;SDS011;58179;48.776;9.124;2023-05-10T14:50:05;3.90;;;0.80;;
55913;SDS011;58179;48.776;9.124;2023-05-10T14:52:34;2.92;;;0.90;;
55913;SDS011;58179;48.776;9.124;2023-05-10T14:55:01;3.20;;;0.98;;
55913;SDS011;58179;48.776;9.124;2023-05-10T14:57:29;1.98;;;0.90;;
55913;SDS011;58179;48.776;9.124;2023-05-10T14:59:58;1.85;;;0.80;;
55913;SDS011;58179;48.776;9.124;2023-05-10T15:02:26;4.13;;;1.00;;
55913;SDS011;58179;48.776;9.124;2023-05-10T15:04:54;3.77;;;0.90;;
55913;SDS011;58179;48.776;9.124;2023-05-10T15:07:20;3.45;;;0.90;;
55913;SDS011;58179;48.776;9.124;2023-05-10T17:46:04;1.30;;;0.80;;
55913;SDS011;58179;48.776;9.124;2023-05-10T17:48:33;1.52;;;0.95;;
55913;SDS011;58179;48.776;9.124;2023-05-10T17:51:01;1.83;;;1.13;;
55913;SDS011;58179;48.776;9.124;2023-05-10T17:53:28;1.30;;;0.80;;
55913;SDS011;58179;48.776;9.124;2023-05-10T17:55:54;3.90;;;0.88;;
55913;SDS011;58179;48.776;9.124;2023-05-10T17:58:27;2.70;;;0.90;;
55913;SDS011;58179;48.776;9.124;2023-05-10T18:00:54;1.40;;;0.90;;
